Old Glory, TX (79540)

2:17 PM CDT on May 28, 2015 (GMT -0500)
Farm | | Change Station
CLOSE
Current Station
Personal Weather Station
Location: Aspermont, TX
Elevation: 1650 ft
Nearby Weather Stations
Active Advisory: Tornado Watch

Elev 1650 ft 33.25 °N, 100.21 °W | Updated 7 seconds ago

Mostly Cloudy
Mostly Cloudy
82.9 °F
Feels Like 86 °F
N
11.0
Wind Variable Wind from East
Gusts 13.0 mph

Today
High -- | Low -- °F
--% Chance of Precip.
Yesterday
High -- | Low -- °F
Precip. -- in
6:33 AM 8:42 PM
Waxing Gibbous, 78% visible
Pressure 30.01 in
Visibility 10.0 miles
Clouds Mostly Cloudy 3400 ft
Scattered Clouds 4000 ft
Heat Index 86 °F
Dew Point 68 °F
Humidity 62%
Rainfall 0.00 in
Snow Depth Not available.
UV 10 out of 12
Pollen 6.00 out of 12
Air Quality Not available.
Flu Activity Sporadic
METAR KSWW 281855Z AUTO 14017G21KT 10SM BKN034 SCT040 28/19 A3001 RMK AO2 T02790189

More Conditions Fewer Conditions

Pressure 30.01 in
Visibility 10.0 miles
Clouds Mostly Cloudy 3400 ft
Scattered Clouds 4000 ft
Heat Index 86 °F
Dew Point 68 °F
Humidity 62%
Rainfall 0.00 in
Snow Depth Not available.
UV 10 out of 12
Pollen 6.00 out of 12
Air Quality Not available.
Flu Activity Sporadic
METAR KSWW 281855Z AUTO 14017G21KT 10SM BKN034 SCT040 28/19 A3001 RMK AO2 T02790189

More Conditions Fewer Conditions

10-Day Weather Forecast

Almanac

Astronomy

May. 28, 2015 Rise Set
Actual Time
Civil Twilight
Nautical Twilight
Astronomical Twilight
Moon
Length of Visible Light
Length of Day
Tomorrow will be .
, % of the Moon is Illuminated

Today's Extremes

State Highs State Lows

Community

WunderPhotos

Upload Photos

1,825,031 photos uploaded!

WunderBlogs® & News

Nearby

Air Quality

  Air Quality AQ Index Pollutant
Not available.

Snow Depth

Station Depth Elevation

Earthquake Activity

City Distance Mag. Time & Date
Minimum magnitude displayed is 2.5.

Coastal Water Temperatures

Place Temperature

Stations

Nearby Weather Stations

Station Location Temp. Windchill Dew Point Humidity Wind Precip. Elev Updated Type
                   
Tornado Watch
Statement as of 2:03 PM CDT on May 28, 2015

Tornado Watch 234 remains in effect until 800 PM CDT for the
following locations

TX
. Texas counties included are

Andrews Bailey Baylor
Borden Brewster Callahan
Cochran Coke Cottle
Crane Crockett Crosby
Culberson Dawson Dickens
Ector Fisher Floyd
Foard Gaines Garza
Glasscock Hale Hardeman
Haskell Hockley Howard
Irion Jeff Davis Jones
Kent King Knox
Lamb Loving Lubbock
Lynn Martin Midland
Mitchell Motley Nolan
Pecos Presidio Reagan
Reeves Runnels Schleicher
Scurry Shackelford Sterling
Stonewall Sutton Taylor
Terrell Terry Throckmorton
Tom Green Upton Val Verde
Ward Wilbarger Winkler
Yoakum